Latest Weather Observations for Troughton Island

IDW60801

Issued at 9:13 am WST Monday 26 August 2019 (issued every 10 minutes, with the page automatically refreshed every 10 minutes)

About weather observations | Map of weather stations | Latest weather observations for WA | Other Formats
Station Details ID: 001007 Name: TROUGHTON ISLAND Lat: -13.75 Lon: 126.15 Height: 6.0 m
Data from the previous 72 hours. | See also: Recent months at Troughton Island
Date/Time
WST
Temp
°C
App
Temp
°C
Dew
Point
°C
Rel
Hum
%
Delta-T
°C
Wind Press
QNH
hPa
Press
MSL
hPa
Rain since
9am
mm
Dir  Spd
km/h
Gust
km/h
Spd
kts
Gust
kts
26/09:00am 26.2 28.4 19.1 65 4.6 SSE 6 11 3 6 1015.8 1015.7 0.0
26/08:30am 26.1 28.1 19.2 65 4.4 SSE 7 11 4 6 1015.8 1015.7 0.0
26/08:00am 25.9 28.5 19.3 67 4.2 SSE 4 9 2 5 1015.3 1015.2 0.0
26/07:30am 25.5 28.5 19.2 68 4.0 SSE 2 7 1 4 1015.0 1014.9 0.0
26/07:00am 24.8 28.1 19.2 71 3.6 CALM 0 0 0 0 1014.9 1014.8 0.0
26/06:30am 23.5 27.0 19.6 79 2.5 CALM 0 0 0 0 1014.7 1014.6 0.0
26/06:00am 22.9 26.3 19.3 80 2.3 CALM 0 0 0 0 1014.4 1014.3 0.0
26/05:30am 23.1 25.3 19.1 78 2.5 S 6 9 3 5 1014.0 1013.9 0.0
26/05:00am 23.4 24.7 19.3 78 2.6 SSW 11 15 6 8 1013.5 1013.4 0.0
26/04:30am 23.6 24.2 19.5 78 2.6 SW 15 17 8 9 1013.1 1013.0 0.0
26/04:00am 23.4 24.4 19.5 79 2.5 SW 13 15 7 8 1013.1 1013.0 0.0
26/03:30am 23.5 24.7 20.0 81 2.3 SW 13 17 7 9 1013.0 1012.9 0.0
26/03:00am 23.3 24.7 20.4 84 1.9 WSW 13 17 7 9 1013.2 1013.1 0.0
26/02:30am 22.9 25.0 20.1 84 1.8 SW 9 13 5 7 1013.5 1013.4 0.0
26/02:00am 22.4 23.9 19.8 85 1.7 S 11 13 6 7 1013.6 1013.5 0.0
26/01:30am 22.5 23.9 19.5 83 1.9 S 11 15 6 8 1013.7 1013.6 0.0
26/01:00am 22.8 24.6 19.6 82 2.0 SW 9 13 5 7 1013.6 1013.5 0.0
26/12:30am 22.3 23.7 19.5 84 1.8 S 11 13 6 7 1013.9 1013.8 0.0
26/12:00am 22.3 25.3 19.3 83 1.9 S 2 13 1 7 1014.0 1013.9 0.0
 
Date/Time
WST
Temp
°C
App
Temp
°C
Dew
Point
°C
Rel
Hum
%
Delta-T
°C
Wind Press
QNH
hPa
Press
MSL
hPa
Rain since
9am
mm
Dir  Spd
km/h
Gust
km/h
Spd
kts
Gust
kts
25/11:30pm 22.8 26.2 19.4 81 2.2 CALM 0 0 0 0 1014.4 1014.3 0.0
25/11:00pm 22.7 25.9 18.9 79 2.4 CALM 0 0 0 0 1014.4 1014.3 0.0
25/10:30pm 23.3 26.6 19.0 77 2.7 CALM 0 0 0 0 1014.6 1014.5 0.0
25/10:00pm 23.9 27.3 19.4 76 2.9 CALM 0 0 0 0 1014.7 1014.6 0.0
25/09:30pm 23.6 27.0 19.3 77 2.7 CALM 0 0 0 0 1014.6 1014.5 0.0
25/09:00pm 23.9 27.2 19.2 75 3.0 CALM 0 0 0 0 1014.6 1014.5 0.0
25/08:30pm 23.8 26.7 19.1 75 3.0 ESE 2 9 1 5 1014.8 1014.7 0.0
25/08:00pm 24.1 26.3 19.2 74 3.1 SE 6 11 3 6 1014.6 1014.5 0.0
25/07:30pm 24.7 26.1 19.5 73 3.3 E 11 13 6 7 1014.2 1014.1 0.0
25/07:00pm 24.7 26.9 19.5 73 3.3 ESE 7 11 4 6 1013.7 1013.6 0.0
25/06:30pm 24.7 27.0 19.5 73 3.3 SE 6 11 3 6 1013.2 1013.1 0.0
25/06:00pm 24.4 26.2 19.5 74 3.1 NNW 9 11 5 6 1013.0 1012.9 0.0
25/05:30pm 25.0 26.3 19.4 71 3.6 WNW 11 15 6 8 1012.7 1012.6 0.0
25/05:00pm 26.0 27.0 19.4 67 4.3 NW 13 17 7 9 1012.7 1012.6 0.0
25/04:30pm 26.5 27.4 20.1 68 4.2 NNW 15 17 8 9 1012.4 1012.3 0.0
25/04:00pm 26.7 26.6 19.6 65 4.6 N 19 22 10 12 1012.4 1012.3 0.0
25/03:30pm 26.8 26.3 19.2 63 4.9 N 20 24 11 13 1012.3 1012.2 0.0
25/03:00pm 27.3 27.5 20.1 64 4.7 N 19 24 10 13 1012.3 1012.2 0.0
25/02:30pm 27.3 26.8 19.1 61 5.3 N 20 24 11 13 1012.4 1012.3 0.0
25/02:00pm 26.7 26.1 18.8 62 5.1 N 20 24 11 13 1012.7 1012.6 0.0
25/01:30pm 27.8 27.6 19.3 60 5.5 N 19 24 10 13 1013.0 1012.9 0.0
25/01:00pm 26.4 26.0 18.8 63 4.9 N 19 24 10 13 1013.3 1013.2 0.0
25/12:30pm 27.0 27.8 19.9 65 4.6 N 15 20 8 11 1013.6 1013.5 0.0
25/12:00pm 27.1 27.9 18.1 58 5.7 NE 11 15 6 8 1014.0 1013.9 0.0
25/11:30am 27.3 26.6 14.3 45 7.8 E 11 13 6 7 1014.5 1014.4 0.0
25/11:00am 27.7 28.9 19.0 59 5.6 ENE 11 17 6 9 1014.9 1014.8 0.0
25/10:30am 26.8 28.1 19.2 63 4.9 E 11 13 6 7 1015.2 1015.1 0.0
25/10:00am 26.6 28.0 18.7 62 5.0 E 9 13 5 7 1015.6 1015.5 0.0
25/09:30am 27.1 28.5 18.7 60 5.4 E 9 13 5 7 1015.8 1015.7 0.0
25/09:00am 26.4 28.3 19.0 63 4.7 ESE 7 11 4 6 1015.9 1015.8 0.0
25/08:30am 26.1 29.6 20.4 71 3.7 SE 2 7 1 4 1015.8 1015.7 0.0
25/08:00am 25.1 29.2 20.8 77 2.8 CALM 0 0 0 0 1015.4 1015.3 0.0
25/07:30am 24.6 28.8 20.9 80 2.4 CALM 0 0 0 0 1015.2 1015.1 0.0
25/07:00am 24.0 28.2 20.9 83 2.0 CALM 0 0 0 0 1015.0 1014.9 0.0
25/06:30am 23.7 28.2 21.6 88 1.4 CALM 0 2 0 1 1014.5 1014.4 0.0
25/06:00am 22.5 25.8 20.8 90 1.1 SSE 4 7 2 4 1014.1 1014.0 0.0
25/05:30am 22.6 25.3 20.7 89 1.2 SSE 7 9 4 5 1013.8 1013.7 0.0
25/05:00am 23.0 24.9 21.3 90 1.1 SSW 13 15 7 8 1013.7 1013.6 0.0
25/04:30am 23.0 25.3 21.3 90 1.1 SSW 11 13 6 7 1013.4 1013.3 0.0
25/04:00am 22.9 25.7 21.5 92 0.9 SSW 9 11 5 6 1013.2 1013.1 0.0
25/03:30am 22.9 25.5 21.2 90 1.1 SW 9 11 5 6 1013.3 1013.2 0.0
25/03:00am 22.7 25.4 20.6 88 1.4 WSW 7 11 4 6 1013.2 1013.1 0.0
25/02:30am 22.6 25.1 20.3 87 1.5 SW 7 11 4 6 1013.4 1013.3 0.0
25/02:00am 22.5 26.3 20.2 87 1.5 CALM 0 0 0 0 1013.4 1013.3 0.0
25/01:30am 22.7 25.4 20.2 86 1.6 SW 6 7 3 4 1013.6 1013.5 0.0
25/01:00am 23.0 25.3 20.7 87 1.5 SW 9 11 5 6 1013.8 1013.7 0.0
25/12:30am 22.9 25.6 20.6 87 1.5 SSW 7 9 4 5 1014.1 1014.0 0.0
25/12:00am 23.2 25.5 20.7 86 1.6 SSW 9 11 5 6 1014.4 1014.3 0.0
 
Date/Time
WST
Temp
°C
App
Temp
°C
Dew
Point
°C
Rel
Hum
%
Delta-T
°C
Wind Press
QNH
hPa
Press
MSL
hPa
Rain since
9am
mm
Dir  Spd
km/h
Gust
km/h
Spd
kts
Gust
kts
24/11:30pm 23.3 25.6 20.6 85 1.8 S 9 11 5 6 1014.7 1014.6 0.0
24/11:00pm 23.1 25.3 20.4 85 1.7 SSW 9 11 5 6 1015.1 1015.0 0.0
24/10:30pm 22.6 24.7 20.1 86 1.6 S 9 9 5 5 1015.4 1015.3 0.0
24/10:00pm 23.0 25.7 20.7 87 1.5 SSE 7 9 4 5 1015.5 1015.4 0.0
24/09:30pm 22.9 24.7 20.4 86 1.6 S 11 11 6 6 1015.3 1015.2 0.0
24/09:00pm 22.7 23.9 20.0 85 1.7 S 13 15 7 8 1015.2 1015.1 0.0
24/08:30pm 22.7 23.9 20.0 85 1.7 S 13 15 7 8 1015.1 1015.0 0.0
24/08:00pm 22.9 25.4 19.9 83 1.9 SSE 6 13 3 7 1014.9 1014.8 0.0
24/07:30pm 24.0 27.0 20.1 79 2.5 SE 4 9 2 5 1014.5 1014.4 0.0
24/07:00pm 23.9 25.9 20.0 79 2.5 SSE 9 9 5 5 1013.9 1013.8 0.0
24/06:30pm 24.1 26.5 20.0 78 2.6 SSE 7 9 4 5 1013.7 1013.6 0.0
24/06:00pm 24.6 26.5 19.7 74 3.2 S 9 11 5 6 1013.4 1013.3 0.0
24/05:30pm 25.2 26.7 19.8 72 3.5 WNW 11 13 6 7 1013.3 1013.2 0.0
24/05:00pm 26.0 27.1 19.6 68 4.1 NW 13 15 7 8 1013.0 1012.9 0.0
24/04:30pm 26.7 27.5 19.1 63 4.9 NW 13 17 7 9 1012.8 1012.7 0.0
24/04:00pm 27.3 27.4 18.3 58 5.7 NW 15 17 8 9 1012.5 1012.4 0.0
24/03:30pm 27.5 27.4 17.9 55 6.1 NW 15 17 8 9 1012.3 1012.2 0.0
24/03:00pm 27.8 27.3 17.0 51 6.8 WNW 15 17 8 9 1012.2 1012.1 0.0
24/02:30pm 27.7 27.8 19.2 60 5.5 NW 17 20 9 11 1012.4 1012.3 0.0
24/02:00pm 27.3 27.3 18.9 60 5.4 NW 17 20 9 11 1012.7 1012.6 0.0
24/01:30pm 27.2 27.5 17.9 56 5.9 WNW 13 17 7 9 1013.2 1013.1 0.0
24/01:00pm 27.7 28.2 17.5 53 6.4 WSW 11 15 6 8 1013.7 1013.6 0.0
24/12:30pm 27.5 27.6 16.5 51 6.8 WNW 11 13 6 7 1014.2 1014.1 0.0
24/12:00pm 28.3 28.3 15.2 44 8.0 S 9 13 5 7 1014.6 1014.5 0.0
24/11:30am 28.5 29.6 14.7 43 8.4 NNE 2 7 1 4 1015.0 1014.9 0.0
24/11:00am 28.3 27.9 14.2 42 8.5 E 9 11 5 6 1015.5 1015.4 0.0
24/10:30am 27.2 27.5 15.9 50 6.9 ESE 9 11 5 6 1015.9 1015.8 0.0
24/10:00am 26.9 27.4 16.5 53 6.4 ESE 9 13 5 7 1016.4 1016.3 0.0
24/09:30am 26.9 27.6 17.1 55 6.1 ESE 9 13 5 7 1016.9 1016.8 0.0
24/09:00am 27.0 27.2 15.7 50 6.9 SE 9 13 5 7 1017.0 1016.9 0.0
24/08:30am 26.1 25.4 14.2 48 7.1 SSE 11 15 6 8 1017.0 1016.9 0.0
24/08:00am 26.1 26.6 15.5 52 6.4 SSE 7 11 4 6 1017.0 1016.9 0.0
24/07:30am 25.4 25.6 15.7 55 5.9 SSE 9 11 5 6 1016.8 1016.7 0.0
24/07:00am 24.8 25.3 16.5 60 5.1 SSW 9 11 5 6 1016.7 1016.6 0.0
24/06:30am 23.2 24.0 17.4 70 3.6 S 9 9 5 5 1016.5 1016.4 0.0
24/06:00am 21.4 22.4 16.8 75 2.8 SSE 7 9 4 5 1016.3 1016.2 0.0
24/05:30am 21.6 22.5 16.6 73 3.0 SSE 7 11 4 6 1016.1 1016.0 0.0
24/05:00am 22.3 22.2 17.0 72 3.2 S 13 15 7 8 1015.5 1015.4 0.0
24/04:30am 21.9 22.5 17.7 77 2.6 SSE 11 11 6 6 1015.4 1015.3 0.0
24/04:00am 21.5 23.3 18.3 82 2.0 SSE 6 9 3 5 1015.2 1015.1 0.0
24/03:30am 21.4 24.1 17.8 80 2.2 CALM 0 0 0 0 1015.1 1015.0 0.0
24/03:00am 21.6 24.5 18.2 81 2.1 CALM 0 0 0 0 1015.2 1015.1 0.0
24/02:30am 21.5 24.1 17.5 78 2.5 CALM 0 0 0 0 1015.5 1015.4 0.0
24/02:00am 21.8 24.7 18.2 80 2.2 CALM 0 0 0 0 1015.6 1015.5 0.0
24/01:30am 21.9 24.7 17.9 78 2.5 CALM 0 0 0 0 1015.5 1015.4 0.0
24/01:00am 22.2 25.2 18.4 79 2.4 CALM 0 0 0 0 1015.6 1015.5 0.0
24/12:30am 22.2 25.0 18.0 77 2.6 CALM 0 0 0 0 1015.8 1015.7 0.0
24/12:00am 22.2 25.0 18.0 77 2.6 CALM 0 0 0 0 1016.0 1015.9 0.0
 
Date/Time
WST
Temp
°C
App
Temp
°C
Dew
Point
°C
Rel
Hum
%
Delta-T
°C
Wind Press
QNH
hPa
Press
MSL
hPa
Rain since
9am
mm
Dir  Spd
km/h
Gust
km/h
Spd
kts
Gust
kts
23/11:30pm 22.3 25.0 17.7 75 2.9 CALM 0 0 0 0 1016.1 1016.0 0.0
23/11:00pm 22.5 25.1 17.6 74 3.0 CALM 0 0 0 0 1016.3 1016.2 0.0
23/10:30pm 22.7 25.5 18.0 75 2.9 CALM 0 0 0 0 1016.4 1016.3 0.0
23/10:00pm 22.7 25.5 18.0 75 2.9 CALM 0 0 0 0 1016.3 1016.2 0.0
23/09:30pm 22.9 25.8 18.2 75 2.9 CALM 0 0 0 0 1016.6 1016.5 0.0
23/09:00pm 22.9 25.8 18.2 75 2.9 CALM 0 0 0 0 1016.6 1016.5 0.0
23/08:30pm 23.1 25.9 18.0 73 3.2 CALM 0 0 0 0 1016.5 1016.4 0.0
23/08:00pm 23.6 26.2 17.6 69 3.7 CALM 0 0 0 0 1016.2 1016.1 0.0
23/07:30pm 23.6 26.1 17.3 67 3.9 CALM 0 0 0 0 1016.0 1015.9 0.0
23/07:00pm 24.4 27.0 17.6 66 4.2 CALM 0 0 0 0 1015.7 1015.6 0.0
23/06:30pm 24.7 27.3 17.4 64 4.5 CALM 0 0 0 0 1015.5 1015.4 0.0
23/06:00pm 24.9 26.2 17.1 62 4.8 SE 6 9 3 5 1015.1 1015.0 0.0
23/05:30pm 25.2 25.3 16.6 59 5.3 E 11 13 6 7 1014.9 1014.8 0.0
23/05:00pm 25.5 25.6 16.6 58 5.5 E 11 13 6 7 1014.6 1014.5 0.0
23/04:30pm 25.8 25.4 15.2 52 6.4 ENE 11 15 6 8 1014.5 1014.4 0.0
23/04:00pm 26.8 25.4 13.5 44 7.8 ENE 13 15 7 8 1014.4 1014.3 0.0
23/03:30pm 26.8 25.4 12.1 40 8.5 NE 11 15 6 8 1014.2 1014.1 0.0
23/03:00pm 27.7 25.5 9.5 32 10.1 NE 11 15 6 8 1014.2 1014.1 0.0
23/02:30pm 27.6 25.2 8.5 30 10.4 NNE 11 15 6 8 1014.4 1014.3 0.0
23/02:00pm 27.9 26.5 11.0 35 9.6 N 9 13 5 7 1014.7 1014.6 0.0
23/01:30pm 27.9 25.9 8.7 30 10.5 E 9 15 5 8 1015.0 1014.9 0.0
23/01:00pm 28.9 27.4 9.1 29 11.0 ESE 7 11 4 6 1015.2 1015.1 0.0
23/12:30pm 28.9 27.3 8.0 27 11.4 ESE 6 11 3 6 1015.6 1015.5 0.0
23/12:00pm 29.1 27.0 5.9 23 12.2 ESE 6 11 3 6 1016.0 1015.9 0.0
23/11:30am 28.8 27.7 8.5 28 11.1 E 4 11 2 6 1016.4 1016.3 0.0
23/11:00am 28.4 27.0 8.7 29 10.8 E 6 11 3 6 1016.9 1016.8 0.0
23/10:30am 27.8 26.7 10.5 34 9.8 E 7 11 4 6 1017.3 1017.2 0.0
23/10:00am 27.6 27.0 13.5 41 8.3 SE 9 13 5 7 1017.5 1017.4 0.0
23/09:30am 26.9 26.2 15.3 49 7.0 SE 13 17 7 9 1017.8 1017.7 0.0

Other formats

Comma delimited format used in spreadsheet applications
http://www.bom.gov.au/fwo/IDW60801/IDW60801.94102.axf

JavaScript Object Notation format (JSON) in row-major order
http://www.bom.gov.au/fwo/IDW60801/IDW60801.94102.json

Data quality

Most of these data are generated automatically and are frequently updated. Quality checks on data are not normally performed. It is possible for incorrect values to appear. Refer to information at About Latest Weather Observations and please check the disclaimer before using these data.